Svogerslev, Denmark
Current Conditions -  °F | °C
As of 5:50 AM on Tuesday 23 Dec 2014 (Local Time) from EKRK Reporting Station
Broken Clouds Broken Clouds  
Wind Chill: 38°   Ceiling: 13000
Heat Index: 45°   Visibility: 6mi
Dew Point: 43°   Wind: 13mph
Humidity: 93%   Direction: 260°W
Pressure: 29.59"   Gusts: NA
Location:  55.63°N, 12.01°E
Report Text: EKRK 230450Z AUTO 26011KT 9999NDV FEW013/// BKN130///BKN190/// 07/06 Q1002
Loading
Personal Weather Stations






























Interactive Weather Map New forecast layout! Learn more

10-Day Weather Forecast

Advertisements
Track Severe Weather on mobile